sensor_id;sensor_type;location;lat;lon;timestamp;temperature;humidity
16388;DHT22;8303;53.446;9.988;2023-01-04T05:41:07;6.70;99.90
16388;DHT22;8303;53.446;9.988;2023-01-04T05:43:54;6.80;99.90
16388;DHT22;8303;53.446;9.988;2023-01-04T05:46:21;6.80;99.90
16388;DHT22;8303;53.446;9.988;2023-01-04T05:48:48;6.90;99.90
16388;DHT22;8303;53.446;9.988;2023-01-04T05:51:15;6.90;99.90
16388;DHT22;8303;53.446;9.988;2023-01-04T05:53:42;6.90;99.90
16388;DHT22;8303;53.446;9.988;2023-01-04T05:56:10;7.00;99.90
16388;DHT22;8303;53.446;9.988;2023-01-04T05:58:37;7.00;99.90
16388;DHT22;8303;53.446;9.988;2023-01-04T06:01:04;7.00;1.00
16388;DHT22;8303;53.446;9.988;2023-01-04T06:03:32;7.10;1.00
16388;DHT22;8303;53.446;9.988;2023-01-04T06:05:59;7.10;1.00
16388;DHT22;8303;53.446;9.988;2023-01-04T06:08:25;7.10;1.00
16388;DHT22;8303;53.446;9.988;2023-01-04T06:10:52;7.10;1.00
16388;DHT22;8303;53.446;9.988;2023-01-04T06:13:21;7.20;1.00
16388;DHT22;8303;53.446;9.988;2023-01-04T06:15:47;7.30;1.00
16388;DHT22;8303;53.446;9.988;2023-01-04T06:18:14;7.40;1.00
16388;DHT22;8303;53.446;9.988;2023-01-04T06:20:42;7.40;1.00
16388;DHT22;8303;53.446;9.988;2023-01-04T06:23:09;7.40;1.00
16388;DHT22;8303;53.446;9.988;2023-01-04T06:25:36;7.50;1.00
16388;DHT22;8303;53.446;9.988;2023-01-04T06:28:03;7.50;1.00
16388;DHT22;8303;53.446;9.988;2023-01-04T06:30:31;7.60;1.00
16388;DHT22;8303;53.446;9.988;2023-01-04T06:32:58;7.60;1.00
16388;DHT22;8303;53.446;9.988;2023-01-04T06:35:25;7.60;1.00
16388;DHT22;8303;53.446;9.988;2023-01-04T06:37:52;7.70;1.00
16388;DHT22;8303;53.446;9.988;2023-01-04T06:40:19;7.70;1.00
16388;DHT22;8303;53.446;9.988;2023-01-04T06:42:46;7.80;1.00
16388;DHT22;8303;53.446;9.988;2023-01-04T06:45:13;7.80;1.00
16388;DHT22;8303;53.446;9.988;2023-01-04T06:47:42;7.90;1.00
16388;DHT22;8303;53.446;9.988;2023-01-04T06:50:10;7.90;1.00
16388;DHT22;8303;53.446;9.988;2023-01-04T06:52:37;7.90;1.00
16388;DHT22;8303;53.446;9.988;2023-01-04T06:55:04;8.00;1.00
16388;DHT22;8303;53.446;9.988;2023-01-04T06:57:33;8.00;1.00
16388;DHT22;8303;53.446;9.988;2023-01-04T07:00:01;8.00;1.00
16388;DHT22;8303;53.446;9.988;2023-01-04T07:02:28;8.10;1.00
16388;DHT22;8303;53.446;9.988;2023-01-04T07:04:56;8.00;1.00
16388;DHT22;8303;53.446;9.988;2023-01-04T07:07:23;8.10;1.00
16388;DHT22;8303;53.446;9.988;2023-01-04T07:09:50;8.10;1.00
16388;DHT22;8303;53.446;9.988;2023-01-04T07:12:16;8.10;1.00
16388;DHT22;8303;53.446;9.988;2023-01-04T07:14:43;8.10;1.00
16388;DHT22;8303;53.446;9.988;2023-01-04T07:17:10;8.20;1.00
16388;DHT22;8303;53.446;9.988;2023-01-04T07:19:37;8.20;1.00
16388;DHT22;8303;53.446;9.988;2023-01-04T07:22:05;8.20;1.00
16388;DHT22;8303;53.446;9.988;2023-01-04T07:24:32;8.20;1.00
16388;DHT22;8303;53.446;9.988;2023-01-04T07:27:00;8.30;1.00
16388;DHT22;8303;53.446;9.988;2023-01-04T07:29:27;8.30;1.00
16388;DHT22;8303;53.446;9.988;2023-01-04T07:31:54;8.30;1.00
16388;DHT22;8303;53.446;9.988;2023-01-04T07:34:23;8.40;1.00
16388;DHT22;8303;53.446;9.988;2023-01-04T07:36:50;8.40;1.00
16388;DHT22;8303;53.446;9.988;2023-01-04T07:39:20;8.40;1.00
16388;DHT22;8303;53.446;9.988;2023-01-04T07:41:48;8.40;1.00
16388;DHT22;8303;53.446;9.988;2023-01-04T07:44:16;8.50;1.00
16388;DHT22;8303;53.446;9.988;2023-01-04T07:46:43;8.50;10.00
16388;DHT22;8303;53.446;9.988;2023-01-04T07:49:11;8.60;12.10
16388;DHT22;8303;53.446;9.988;2023-01-04T07:51:38;8.60;13.50
16388;DHT22;8303;53.446;9.988;2023-01-04T07:54:05;8.60;12.50
16388;DHT22;8303;53.446;9.988;2023-01-04T07:56:33;8.60;12.50
16388;DHT22;8303;53.446;9.988;2023-01-04T07:59:00;8.70;23.00
16388;DHT22;8303;53.446;9.988;2023-01-04T08:01:27;8.70;40.10
16388;DHT22;8303;53.446;9.988;2023-01-04T08:03:54;8.80;44.00
16388;DHT22;8303;53.446;9.988;2023-01-04T08:06:21;8.80;40.60
16388;DHT22;8303;53.446;9.988;2023-01-04T08:08:48;8.90;22.40
16388;DHT22;8303;53.446;9.988;2023-01-04T08:11:16;8.90;10.50
16388;DHT22;8303;53.446;9.988;2023-01-04T08:13:45;8.90;7.50
16388;DHT22;8303;53.446;9.988;2023-01-04T08:16:18;9.00;3.70
16388;DHT22;8303;53.446;9.988;2023-01-04T08:18:45;9.00;1.00
16388;DHT22;8303;53.446;9.988;2023-01-04T08:21:12;9.10;1.00
16388;DHT22;8303;53.446;9.988;2023-01-04T08:23:39;9.10;1.00
16388;DHT22;8303;53.446;9.988;2023-01-04T08:26:07;9.10;1.00
16388;DHT22;8303;53.446;9.988;2023-01-04T08:28:35;9.20;1.00
16388;DHT22;8303;53.446;9.988;2023-01-04T08:31:06;9.20;1.00
16388;DHT22;8303;53.446;9.988;2023-01-04T08:33:33;9.20;1.00
16388;DHT22;8303;53.446;9.988;2023-01-04T08:36:08;9.20;1.00
16388;DHT22;8303;53.446;9.988;2023-01-04T08:38:35;9.30;1.00
16388;DHT22;8303;53.446;9.988;2023-01-04T08:41:02;9.30;1.00
16388;DHT22;8303;53.446;9.988;2023-01-04T08:43:29;9.30;1.00
16388;DHT22;8303;53.446;9.988;2023-01-04T08:45:56;9.40;1.00
16388;DHT22;8303;53.446;9.988;2023-01-04T08:48:24;9.40;1.00
16388;DHT22;8303;53.446;9.988;2023-01-04T08:50:51;9.40;1.00
16388;DHT22;8303;53.446;9.988;2023-01-04T08:53:18;9.50;1.00
16388;DHT22;8303;53.446;9.988;2023-01-04T08:55:49;9.50;1.00
16388;DHT22;8303;53.446;9.988;2023-01-04T08:58:15;9.50;1.40
16388;DHT22;8303;53.446;9.988;2023-01-04T09:00:42;9.50;1.00
16388;DHT22;8303;53.446;9.988;2023-01-04T09:03:10;9.50;13.00
16388;DHT22;8303;53.446;9.988;2023-01-04T09:05:38;9.60;26.10
16388;DHT22;8303;53.446;9.988;2023-01-04T09:08:06;9.60;15.80
16388;DHT22;8303;53.446;9.988;2023-01-04T09:10:35;9.60;12.40
16388;DHT22;8303;53.446;9.988;2023-01-04T09:13:03;9.70;1.00
16388;DHT22;8303;53.446;9.988;2023-01-04T09:15:30;9.70;1.00
16388;DHT22;8303;53.446;9.988;2023-01-04T09:17:57;9.80;1.00
16388;DHT22;8303;53.446;9.988;2023-01-04T09:20:24;9.80;1.00
16388;DHT22;8303;53.446;9.988;2023-01-04T09:22:52;9.80;1.00
16388;DHT22;8303;53.446;9.988;2023-01-04T09:25:19;9.90;1.00
16388;DHT22;8303;53.446;9.988;2023-01-04T09:27:45;9.90;1.00
16388;DHT22;8303;53.446;9.988;2023-01-04T09:30:13;10.00;1.00
16388;DHT22;8303;53.446;9.988;2023-01-04T09:32:39;10.00;1.00
16388;DHT22;8303;53.446;9.988;2023-01-04T09:35:07;10.00;1.00
16388;DHT22;8303;53.446;9.988;2023-01-04T09:37:34;10.00;1.00
16388;DHT22;8303;53.446;9.988;2023-01-04T09:40:02;10.00;1.00
16388;DHT22;8303;53.446;9.988;2023-01-04T09:42:33;10.10;1.00
16388;DHT22;8303;53.446;9.988;2023-01-04T09:45:07;10.10;1.00
16388;DHT22;8303;53.446;9.988;2023-01-04T09:47:40;10.10;1.00
16388;DHT22;8303;53.446;9.988;2023-01-04T09:50:12;10.10;4.50
16388;DHT22;8303;53.446;9.988;2023-01-04T09:52:48;10.10;34.30
16388;DHT22;8303;53.446;9.988;2023-01-04T09:55:20;10.10;51.50
16388;DHT22;8303;53.446;9.988;2023-01-04T09:57:51;10.10;65.30
16388;DHT22;8303;53.446;9.988;2023-01-04T10:00:23;10.20;90.70
16388;DHT22;8303;53.446;9.988;2023-01-04T10:02:56;10.20;77.20
16388;DHT22;8303;53.446;9.988;2023-01-04T10:05:26;10.20;65.20
16388;DHT22;8303;53.446;9.988;2023-01-04T10:07:54;10.20;45.30
16388;DHT22;8303;53.446;9.988;2023-01-04T10:10:42;10.20;35.90
16388;DHT22;8303;53.446;9.988;2023-01-04T10:13:20;10.20;21.50
16388;DHT22;8303;53.446;9.988;2023-01-04T10:15:51;10.20;1.00
16388;DHT22;8303;53.446;9.988;2023-01-04T10:18:25;10.10;6.00
16388;DHT22;8303;53.446;9.988;2023-01-04T10:21:10;10.10;5.60
16388;DHT22;8303;53.446;9.988;2023-01-04T10:23:53;10.10;26.70
16388;DHT22;8303;53.446;9.988;2023-01-04T10:26:31;10.20;93.50
16388;DHT22;8303;53.446;9.988;2023-01-04T10:29:33;10.70;98.60
16388;DHT22;8303;53.446;9.988;2023-01-04T10:32:05;10.90;1.00
16388;DHT22;8303;53.446;9.988;2023-01-04T10:34:39;11.20;1.00
16388;DHT22;8303;53.446;9.988;2023-01-04T10:37:12;11.30;99.90
16388;DHT22;8303;53.446;9.988;2023-01-04T10:39:41;11.50;1.00
16388;DHT22;8303;53.446;9.988;2023-01-04T10:42:16;11.50;1.00
16388;DHT22;8303;53.446;9.988;2023-01-04T10:44:53;11.30;99.90
16388;DHT22;8303;53.446;9.988;2023-01-04T10:47:27;11.30;1.00
16388;DHT22;8303;53.446;9.988;2023-01-04T10:49:57;11.30;99.90
16388;DHT22;8303;53.446;9.988;2023-01-04T10:52:27;11.40;99.90
16388;DHT22;8303;53.446;9.988;2023-01-04T10:54:59;11.20;1.00
16388;DHT22;8303;53.446;9.988;2023-01-04T10:57:32;11.40;1.00
16388;DHT22;8303;53.446;9.988;2023-01-04T11:00:05;11.40;99.90
16388;DHT22;8303;53.446;9.988;2023-01-04T11:02:36;11.30;99.90
16388;DHT22;8303;53.446;9.988;2023-01-04T11:05:13;11.50;99.90
16388;DHT22;8303;53.446;9.988;2023-01-04T11:07:46;11.50;99.90
16388;DHT22;8303;53.446;9.988;2023-01-04T11:10:17;11.50;99.90
16388;DHT22;8303;53.446;9.988;2023-01-04T11:12:47;11.50;1.00
16388;DHT22;8303;53.446;9.988;2023-01-04T11:15:14;11.50;1.00
16388;DHT22;8303;53.446;9.988;2023-01-04T11:17:42;11.20;89.90
16388;DHT22;8303;53.446;9.988;2023-01-04T11:20:09;11.00;99.90
16388;DHT22;8303;53.446;9.988;2023-01-04T11:22:39;10.90;1.00
16388;DHT22;8303;53.446;9.988;2023-01-04T11:25:10;10.80;1.00
16388;DHT22;8303;53.446;9.988;2023-01-04T11:27:43;10.80;21.30
16388;DHT22;8303;53.446;9.988;2023-01-04T11:30:17;10.80;99.90
16388;DHT22;8303;53.446;9.988;2023-01-04T11:32:51;10.80;99.90
16388;DHT22;8303;53.446;9.988;2023-01-04T11:35:40;10.80;99.90
16388;DHT22;8303;53.446;9.988;2023-01-04T11:38:10;10.80;99.90
16388;DHT22;8303;53.446;9.988;2023-01-04T11:40:38;10.80;99.90
16388;DHT22;8303;53.446;9.988;2023-01-04T11:43:16;10.80;1.00
16388;DHT22;8303;53.446;9.988;2023-01-04T11:46:00;10.80;1.00
16388;DHT22;8303;53.446;9.988;2023-01-04T11:48:32;10.70;1.00
16388;DHT22;8303;53.446;9.988;2023-01-04T11:51:00;10.70;1.00
16388;DHT22;8303;53.446;9.988;2023-01-04T11:53:30;10.70;1.00
16388;DHT22;8303;53.446;9.988;2023-01-04T11:56:12;10.80;1.00
16388;DHT22;8303;53.446;9.988;2023-01-04T11:58:41;10.80;1.00
16388;DHT22;8303;53.446;9.988;2023-01-04T12:01:21;10.80;1.00
16388;DHT22;8303;53.446;9.988;2023-01-04T12:03:48;10.80;1.00
16388;DHT22;8303;53.446;9.988;2023-01-04T12:06:17;10.90;1.00
16388;DHT22;8303;53.446;9.988;2023-01-04T12:08:45;10.90;1.00
16388;DHT22;8303;53.446;9.988;2023-01-04T12:11:18;10.90;1.00
16388;DHT22;8303;53.446;9.988;2023-01-04T12:13:46;11.00;1.00
16388;DHT22;8303;53.446;9.988;2023-01-04T12:16:20;11.00;1.00
16388;DHT22;8303;53.446;9.988;2023-01-04T12:18:51;11.00;1.00
16388;DHT22;8303;53.446;9.988;2023-01-04T12:21:20;11.00;1.00
16388;DHT22;8303;53.446;9.988;2023-01-04T12:23:47;11.00;1.00
16388;DHT22;8303;53.446;9.988;2023-01-04T12:26:15;11.10;1.00
16388;DHT22;8303;53.446;9.988;2023-01-04T12:28:44;11.10;1.00
16388;DHT22;8303;53.446;9.988;2023-01-04T12:31:31;11.10;1.00
16388;DHT22;8303;53.446;9.988;2023-01-04T12:36:56;11.10;1.00
16388;DHT22;8303;53.446;9.988;2023-01-04T12:39:35;11.10;1.00
16388;DHT22;8303;53.446;9.988;2023-01-04T12:42:11;11.10;1.00
16388;DHT22;8303;53.446;9.988;2023-01-04T12:44:59;11.20;1.00
16388;DHT22;8303;53.446;9.988;2023-01-04T12:47:48;11.20;1.00
16388;DHT22;8303;53.446;9.988;2023-01-04T12:53:59;11.30;1.00
16388;DHT22;8303;53.446;9.988;2023-01-04T12:59:32;11.30;1.00
16388;DHT22;8303;53.446;9.988;2023-01-04T13:02:13;11.30;99.90
16388;DHT22;8303;53.446;9.988;2023-01-04T13:04:40;11.30;99.90
16388;DHT22;8303;53.446;9.988;2023-01-04T13:07:13;11.30;99.90
16388;DHT22;8303;53.446;9.988;2023-01-04T13:09:51;11.30;1.00
16388;DHT22;8303;53.446;9.988;2023-01-04T13:12:50;11.30;1.00
16388;DHT22;8303;53.446;9.988;2023-01-04T13:15:23;11.30;1.00
16388;DHT22;8303;53.446;9.988;2023-01-04T13:17:51;11.30;1.00
16388;DHT22;8303;53.446;9.988;2023-01-04T13:20:21;11.30;1.00
16388;DHT22;8303;53.446;9.988;2023-01-04T13:22:51;11.20;1.00
16388;DHT22;8303;53.446;9.988;2023-01-04T13:25:21;11.20;1.00
16388;DHT22;8303;53.446;9.988;2023-01-04T13:27:57;11.30;1.00
16388;DHT22;8303;53.446;9.988;2023-01-04T13:30:29;11.30;1.00
16388;DHT22;8303;53.446;9.988;2023-01-04T13:32:56;11.30;99.90
16388;DHT22;8303;53.446;9.988;2023-01-04T13:35:23;11.30;99.90
16388;DHT22;8303;53.446;9.988;2023-01-04T13:37:50;11.30;99.90
16388;DHT22;8303;53.446;9.988;2023-01-04T13:40:26;11.30;99.90
16388;DHT22;8303;53.446;9.988;2023-01-04T13:43:06;11.30;1.00
16388;DHT22;8303;53.446;9.988;2023-01-04T13:45:49;11.30;1.00
16388;DHT22;8303;53.446;9.988;2023-01-04T13:48:21;11.30;1.00
16388;DHT22;8303;53.446;9.988;2023-01-04T13:51:00;11.30;1.00
16388;DHT22;8303;53.446;9.988;2023-01-04T13:53:29;11.30;1.00
16388;DHT22;8303;53.446;9.988;2023-01-04T13:55:59;11.30;1.00
16388;DHT22;8303;53.446;9.988;2023-01-04T13:58:28;11.30;1.00
16388;DHT22;8303;53.446;9.988;2023-01-04T14:00:58;11.30;1.00
16388;DHT22;8303;53.446;9.988;2023-01-04T14:03:33;11.30;1.00
16388;DHT22;8303;53.446;9.988;2023-01-04T14:06:23;11.30;1.00
16388;DHT22;8303;53.446;9.988;2023-01-04T14:08:57;11.30;1.00
16388;DHT22;8303;53.446;9.988;2023-01-04T14:11:28;11.30;1.00
16388;DHT22;8303;53.446;9.988;2023-01-04T14:14:18;11.20;1.00
16388;DHT22;8303;53.446;9.988;2023-01-04T14:16:46;11.20;1.00
16388;DHT22;8303;53.446;9.988;2023-01-04T14:19:32;11.20;99.90
16388;DHT22;8303;53.446;9.988;2023-01-04T14:22:27;11.10;99.90
16388;DHT22;8303;53.446;9.988;2023-01-04T14:24:56;11.10;99.90
16388;DHT22;8303;53.446;9.988;2023-01-04T14:27:33;11.10;99.90
16388;DHT22;8303;53.446;9.988;2023-01-04T14:30:00;11.10;85.30
16388;DHT22;8303;53.446;9.988;2023-01-04T14:32:39;11.10;1.00
16388;DHT22;8303;53.446;9.988;2023-01-04T14:35:12;11.00;1.00
16388;DHT22;8303;53.446;9.988;2023-01-04T14:37:40;11.10;1.00
16388;DHT22;8303;53.446;9.988;2023-01-04T14:40:13;11.00;1.00
16388;DHT22;8303;53.446;9.988;2023-01-04T14:42:42;11.10;1.00
16388;DHT22;8303;53.446;9.988;2023-01-04T14:45:11;11.00;1.00
16388;DHT22;8303;53.446;9.988;2023-01-04T14:47:38;11.00;1.00
16388;DHT22;8303;53.446;9.988;2023-01-04T14:50:07;11.00;99.90
16388;DHT22;8303;53.446;9.988;2023-01-04T14:52:34;10.90;1.00
16388;DHT22;8303;53.446;9.988;2023-01-04T14:55:01;10.90;1.00
16388;DHT22;8303;53.446;9.988;2023-01-04T14:57:29;10.90;1.00
16388;DHT22;8303;53.446;9.988;2023-01-04T14:59:57;10.90;1.00
16388;DHT22;8303;53.446;9.988;2023-01-04T15:02:25;10.90;1.00
16388;DHT22;8303;53.446;9.988;2023-01-04T15:04:54;10.90;1.00
16388;DHT22;8303;53.446;9.988;2023-01-04T15:07:33;10.90;83.00
16388;DHT22;8303;53.446;9.988;2023-01-04T15:10:00;11.00;86.90
16388;DHT22;8303;53.446;9.988;2023-01-04T15:12:27;11.00;99.90
16388;DHT22;8303;53.446;9.988;2023-01-04T15:14:54;11.00;99.90
16388;DHT22;8303;53.446;9.988;2023-01-04T15:17:22;11.00;99.90
16388;DHT22;8303;53.446;9.988;2023-01-04T15:19:49;11.00;99.90
16388;DHT22;8303;53.446;9.988;2023-01-04T15:22:16;11.00;99.90
16388;DHT22;8303;53.446;9.988;2023-01-04T15:24:42;11.10;99.90
16388;DHT22;8303;53.446;9.988;2023-01-04T15:27:09;11.20;99.90
16388;DHT22;8303;53.446;9.988;2023-01-04T15:29:36;11.30;20.10
16388;DHT22;8303;53.446;9.988;2023-01-04T15:32:03;11.30;1.00
16388;DHT22;8303;53.446;9.988;2023-01-04T15:34:32;11.30;1.00
16388;DHT22;8303;53.446;9.988;2023-01-04T15:36:59;11.40;1.00
16388;DHT22;8303;53.446;9.988;2023-01-04T15:39:25;11.40;1.00
16388;DHT22;8303;53.446;9.988;2023-01-04T15:41:52;11.40;1.00
16388;DHT22;8303;53.446;9.988;2023-01-04T15:44:45;11.40;1.00
16388;DHT22;8303;53.446;9.988;2023-01-04T15:47:12;11.40;1.00
16388;DHT22;8303;53.446;9.988;2023-01-04T15:49:40;11.40;1.00
16388;DHT22;8303;53.446;9.988;2023-01-04T15:52:07;11.50;99.90
16388;DHT22;8303;53.446;9.988;2023-01-04T15:54:34;11.50;99.90
16388;DHT22;8303;53.446;9.988;2023-01-04T15:57:01;11.50;99.90
16388;DHT22;8303;53.446;9.988;2023-01-04T15:59:28;11.50;99.90
16388;DHT22;8303;53.446;9.988;2023-01-04T16:01:54;11.50;99.90
16388;DHT22;8303;53.446;9.988;2023-01-04T16:04:21;11.40;99.90
16388;DHT22;8303;53.446;9.988;2023-01-04T16:06:50;11.40;99.90
16388;DHT22;8303;53.446;9.988;2023-01-04T16:09:17;11.40;99.90
16388;DHT22;8303;53.446;9.988;2023-01-04T16:11:43;11.40;1.00
16388;DHT22;8303;53.446;9.988;2023-01-04T16:14:24;11.50;1.00
16388;DHT22;8303;53.446;9.988;2023-01-04T16:16:51;11.50;1.00
16388;DHT22;8303;53.446;9.988;2023-01-04T16:19:18;11.40;1.00
16388;DHT22;8303;53.446;9.988;2023-01-04T16:21:45;11.40;1.00
16388;DHT22;8303;53.446;9.988;2023-01-04T16:24:13;11.40;1.00
16388;DHT22;8303;53.446;9.988;2023-01-04T16:26:40;11.40;1.00
16388;DHT22;8303;53.446;9.988;2023-01-04T16:29:09;11.40;1.00
16388;DHT22;8303;53.446;9.988;2023-01-04T16:31:37;11.40;1.00
16388;DHT22;8303;53.446;9.988;2023-01-04T16:34:04;11.40;1.00
16388;DHT22;8303;53.446;9.988;2023-01-04T16:36:31;11.40;1.00
16388;DHT22;8303;53.446;9.988;2023-01-04T16:39:00;11.40;1.00
16388;DHT22;8303;53.446;9.988;2023-01-04T16:41:29;11.50;1.00
16388;DHT22;8303;53.446;9.988;2023-01-04T16:43:56;11.40;1.00
16388;DHT22;8303;53.446;9.988;2023-01-04T16:46:25;11.50;1.00
16388;DHT22;8303;53.446;9.988;2023-01-04T16:48:54;11.50;1.00
16388;DHT22;8303;53.446;9.988;2023-01-04T16:51:23;11.40;1.00
16388;DHT22;8303;53.446;9.988;2023-01-04T16:53:50;11.50;1.00
16388;DHT22;8303;53.446;9.988;2023-01-04T16:56:19;11.50;1.00
16388;DHT22;8303;53.446;9.988;2023-01-04T16:58:48;11.40;1.00
16388;DHT22;8303;53.446;9.988;2023-01-04T17:01:17;11.40;1.00
16388;DHT22;8303;53.446;9.988;2023-01-04T17:03:45;11.40;1.00
16388;DHT22;8303;53.446;9.988;2023-01-04T17:06:14;11.20;1.00
16388;DHT22;8303;53.446;9.988;2023-01-04T17:08:43;11.00;1.00
16388;DHT22;8303;53.446;9.988;2023-01-04T17:11:12;10.80;1.00
16388;DHT22;8303;53.446;9.988;2023-01-04T17:13:40;10.60;99.90
16388;DHT22;8303;53.446;9.988;2023-01-04T17:16:09;10.40;99.90
16388;DHT22;8303;53.446;9.988;2023-01-04T17:18:37;10.30;1.00
16388;DHT22;8303;53.446;9.988;2023-01-04T17:21:06;10.20;1.00
16388;DHT22;8303;53.446;9.988;2023-01-04T17:23:35;10.10;1.00
16388;DHT22;8303;53.446;9.988;2023-01-04T17:26:04;10.00;1.00
16388;DHT22;8303;53.446;9.988;2023-01-04T17:28:32;9.90;99.90
16388;DHT22;8303;53.446;9.988;2023-01-04T17:31:03;9.80;1.00
16388;DHT22;8303;53.446;9.988;2023-01-04T17:33:32;9.80;1.00
16388;DHT22;8303;53.446;9.988;2023-01-04T17:36:02;9.80;1.00
16388;DHT22;8303;53.446;9.988;2023-01-04T17:38:29;9.80;1.00
16388;DHT22;8303;53.446;9.988;2023-01-04T17:40:57;9.80;1.00
16388;DHT22;8303;53.446;9.988;2023-01-04T17:43:31;9.90;1.00
16388;DHT22;8303;53.446;9.988;2023-01-04T17:46:00;9.90;1.00
16388;DHT22;8303;53.446;9.988;2023-01-04T17:48:27;10.20;1.00
16388;DHT22;8303;53.446;9.988;2023-01-04T17:50:58;10.20;99.90
16388;DHT22;8303;53.446;9.988;2023-01-04T17:53:29;10.20;1.00
16388;DHT22;8303;53.446;9.988;2023-01-04T17:56:00;10.20;99.90
16388;DHT22;8303;53.446;9.988;2023-01-04T17:58:27;10.20;99.90
16388;DHT22;8303;53.446;9.988;2023-01-04T18:00:54;10.20;99.90
16388;DHT22;8303;53.446;9.988;2023-01-04T18:03:21;10.30;1.00
16388;DHT22;8303;53.446;9.988;2023-01-04T18:05:49;10.30;1.00
16388;DHT22;8303;53.446;9.988;2023-01-04T18:08:18;10.30;1.00
16388;DHT22;8303;53.446;9.988;2023-01-04T18:10:45;10.40;99.90
16388;DHT22;8303;53.446;9.988;2023-01-04T18:13:12;10.40;99.90
16388;DHT22;8303;53.446;9.988;2023-01-04T18:15:39;10.30;99.90
16388;DHT22;8303;53.446;9.988;2023-01-04T18:18:06;10.20;99.90
16388;DHT22;8303;53.446;9.988;2023-01-04T18:20:33;10.10;1.00
16388;DHT22;8303;53.446;9.988;2023-01-04T18:23:00;10.10;1.00
16388;DHT22;8303;53.446;9.988;2023-01-04T18:25:28;10.20;1.00
16388;DHT22;8303;53.446;9.988;2023-01-04T18:27:55;10.20;1.00
16388;DHT22;8303;53.446;9.988;2023-01-04T18:30:22;10.20;1.00
16388;DHT22;8303;53.446;9.988;2023-01-04T18:32:49;10.10;1.00
16388;DHT22;8303;53.446;9.988;2023-01-04T18:35:15;10.10;1.00
16388;DHT22;8303;53.446;9.988;2023-01-04T18:37:43;10.10;1.00
16388;DHT22;8303;53.446;9.988;2023-01-04T18:40:11;10.20;1.00
16388;DHT22;8303;53.446;9.988;2023-01-04T18:42:39;10.10;1.00
16388;DHT22;8303;53.446;9.988;2023-01-04T18:45:10;10.20;1.00
16388;DHT22;8303;53.446;9.988;2023-01-04T18:47:37;10.30;1.00
16388;DHT22;8303;53.446;9.988;2023-01-04T18:50:05;10.30;1.00
16388;DHT22;8303;53.446;9.988;2023-01-04T18:52:32;10.30;1.00
16388;DHT22;8303;53.446;9.988;2023-01-04T18:55:00;10.30;99.90
16388;DHT22;8303;53.446;9.988;2023-01-04T18:57:28;10.30;1.00
16388;DHT22;8303;53.446;9.988;2023-01-04T18:59:56;10.30;1.00
16388;DHT22;8303;53.446;9.988;2023-01-04T19:02:24;10.40;99.90
16388;DHT22;8303;53.446;9.988;2023-01-04T19:04:51;10.40;99.90
16388;DHT22;8303;53.446;9.988;2023-01-04T19:07:18;10.40;99.90
16388;DHT22;8303;53.446;9.988;2023-01-04T19:09:45;10.40;99.90
16388;DHT22;8303;53.446;9.988;2023-01-04T19:12:12;10.30;99.90
16388;DHT22;8303;53.446;9.988;2023-01-04T19:14:39;10.30;24.20
16388;DHT22;8303;53.446;9.988;2023-01-04T19:17:08;10.30;1.00
16388;DHT22;8303;53.446;9.988;2023-01-04T19:19:35;10.20;1.00
16388;DHT22;8303;53.446;9.988;2023-01-04T19:22:02;10.20;1.00
16388;DHT22;8303;53.446;9.988;2023-01-04T19:24:29;10.10;1.00
16388;DHT22;8303;53.446;9.988;2023-01-04T19:26:56;10.10;1.00
16388;DHT22;8303;53.446;9.988;2023-01-04T19:29:27;10.10;43.40
16388;DHT22;8303;53.446;9.988;2023-01-04T19:31:54;10.10;14.90
16388;DHT22;8303;53.446;9.988;2023-01-04T19:34:23;10.00;90.00
16388;DHT22;8303;53.446;9.988;2023-01-04T19:36:50;10.00;99.90
16388;DHT22;8303;53.446;9.988;2023-01-04T19:39:16;10.00;99.90
16388;DHT22;8303;53.446;9.988;2023-01-04T19:41:43;10.00;99.90
16388;DHT22;8303;53.446;9.988;2023-01-04T19:44:11;10.00;72.70
16388;DHT22;8303;53.446;9.988;2023-01-04T19:46:39;10.00;58.10
16388;DHT22;8303;53.446;9.988;2023-01-04T19:49:06;10.00;32.80
16388;DHT22;8303;53.446;9.988;2023-01-04T19:51:35;10.00;41.20
16388;DHT22;8303;53.446;9.988;2023-01-04T19:54:02;10.00;44.10
16388;DHT22;8303;53.446;9.988;2023-01-04T19:56:29;10.00;29.30
16388;DHT22;8303;53.446;9.988;2023-01-04T19:58:55;10.00;25.50
16388;DHT22;8303;53.446;9.988;2023-01-04T20:01:22;10.00;1.00
16388;DHT22;8303;53.446;9.988;2023-01-04T20:03:49;10.00;1.00
16388;DHT22;8303;53.446;9.988;2023-01-04T20:06:16;10.00;6.40
16388;DHT22;8303;53.446;9.988;2023-01-04T20:08:44;10.10;1.00
16388;DHT22;8303;53.446;9.988;2023-01-04T20:11:12;10.10;1.00
16388;DHT22;8303;53.446;9.988;2023-01-04T20:13:39;10.00;7.30
16388;DHT22;8303;53.446;9.988;2023-01-04T20:16:06;10.10;27.30
16388;DHT22;8303;53.446;9.988;2023-01-04T20:18:35;10.00;43.40
16388;DHT22;8303;53.446;9.988;2023-01-04T20:21:06;10.00;47.00
16388;DHT22;8303;53.446;9.988;2023-01-04T20:23:34;10.00;1.00
16388;DHT22;8303;53.446;9.988;2023-01-04T20:26:06;10.00;1.00
16388;DHT22;8303;53.446;9.988;2023-01-04T20:28:33;10.00;1.00
16388;DHT22;8303;53.446;9.988;2023-01-04T20:31:04;9.90;1.00
16388;DHT22;8303;53.446;9.988;2023-01-04T20:33:32;9.80;1.00
16388;DHT22;8303;53.446;9.988;2023-01-04T20:36:04;9.70;1.00
16388;DHT22;8303;53.446;9.988;2023-01-04T20:38:31;9.70;25.90
16388;DHT22;8303;53.446;9.988;2023-01-04T20:41:01;9.60;99.90
16388;DHT22;8303;53.446;9.988;2023-01-04T20:43:29;9.60;99.90
16388;DHT22;8303;53.446;9.988;2023-01-04T20:46:00;9.40;1.00
16388;DHT22;8303;53.446;9.988;2023-01-04T20:48:27;9.30;99.90
16388;DHT22;8303;53.446;9.988;2023-01-04T20:50:55;9.20;99.90
16388;DHT22;8303;53.446;9.988;2023-01-04T20:53:22;9.20;1.00
16388;DHT22;8303;53.446;9.988;2023-01-04T20:55:49;9.20;1.00
16388;DHT22;8303;53.446;9.988;2023-01-04T20:58:16;9.20;1.00
16388;DHT22;8303;53.446;9.988;2023-01-04T21:00:44;9.20;1.00
16388;DHT22;8303;53.446;9.988;2023-01-04T21:03:13;9.20;1.00
16388;DHT22;8303;53.446;9.988;2023-01-04T21:05:41;9.30;1.00
16388;DHT22;8303;53.446;9.988;2023-01-04T21:08:09;9.30;1.00
16388;DHT22;8303;53.446;9.988;2023-01-04T21:10:39;9.30;1.00
16388;DHT22;8303;53.446;9.988;2023-01-04T21:13:07;9.30;1.00
16388;DHT22;8303;53.446;9.988;2023-01-04T21:15:36;9.40;1.00
16388;DHT22;8303;53.446;9.988;2023-01-04T21:18:05;9.40;1.00
16388;DHT22;8303;53.446;9.988;2023-01-04T21:20:38;9.40;1.00
16388;DHT22;8303;53.446;9.988;2023-01-04T21:23:05;9.50;1.00
16388;DHT22;8303;53.446;9.988;2023-01-04T21:25:37;9.50;1.00
16388;DHT22;8303;53.446;9.988;2023-01-04T21:28:04;9.50;1.00
16388;DHT22;8303;53.446;9.988;2023-01-04T21:33:08;9.50;1.00
16388;DHT22;8303;53.446;9.988;2023-01-04T21:35:36;9.50;1.00
16388;DHT22;8303;53.446;9.988;2023-01-04T21:38:04;9.60;1.00
16388;DHT22;8303;53.446;9.988;2023-01-04T22:21:59;10.00;1.00
16388;DHT22;8303;53.446;9.988;2023-01-04T22:24:26;10.00;99.90
16388;DHT22;8303;53.446;9.988;2023-01-04T22:26:53;10.00;99.90
16388;DHT22;8303;53.446;9.988;2023-01-04T22:29:20;10.00;1.00
16388;DHT22;8303;53.446;9.988;2023-01-04T22:31:48;10.00;1.00
16388;DHT22;8303;53.446;9.988;2023-01-04T22:34:15;10.00;99.90
16388;DHT22;8303;53.446;9.988;2023-01-04T22:36:42;10.00;99.90
16388;DHT22;8303;53.446;9.988;2023-01-04T22:39:11;10.00;99.90
16388;DHT22;8303;53.446;9.988;2023-01-04T22:41:37;10.10;15.90
16388;DHT22;8303;53.446;9.988;2023-01-04T22:44:06;10.10;29.00
16388;DHT22;8303;53.446;9.988;2023-01-04T22:46:34;10.10;55.90
16388;DHT22;8303;53.446;9.988;2023-01-04T22:49:00;10.00;99.90
16388;DHT22;8303;53.446;9.988;2023-01-04T22:51:29;10.00;99.90